createdAt,value
2019-04-16T00:01:38.404Z,52.74
2019-04-16T00:05:22.365Z,52.45
2019-04-16T00:08:33.120Z,52.14
2019-04-16T00:11:21.656Z,52.59
2019-04-16T00:14:13.640Z,52.82
2019-04-16T00:16:46.930Z,52.62
2019-04-16T00:19:21.581Z,53.15
2019-04-16T00:22:12.592Z,53.34
2019-04-16T00:24:50.120Z,53.18
2019-04-16T00:27:28.312Z,53.06
2019-04-16T00:30:03.888Z,53.49
2019-04-16T00:32:38.022Z,53.52
2019-04-16T00:35:15.645Z,53.56
2019-04-16T00:37:51.426Z,53.71
2019-04-16T00:40:26.398Z,53.72
2019-04-16T00:42:57.701Z,53.84
2019-04-16T00:45:30.919Z,54.35
2019-04-16T00:48:05.600Z,54.20
2019-04-16T00:50:43.674Z,54.26
2019-04-16T00:53:16.818Z,52.94
2019-04-16T00:55:54.295Z,53.41
2019-04-16T00:58:28.770Z,53.83
2019-04-16T01:01:08.087Z,53.89
2019-04-16T01:03:43.116Z,53.88
2019-04-16T01:06:16.380Z,54.09
2019-04-16T01:08:54.709Z,53.15
2019-04-16T01:11:26.170Z,54.38
2019-04-16T01:13:59.423Z,53.74
2019-04-16T01:16:35.805Z,53.80
2019-04-16T01:19:09.992Z,53.98
2019-04-16T01:21:47.344Z,53.49
2019-04-16T01:24:22.278Z,53.22
2019-04-16T01:26:58.390Z,54.02
2019-04-16T01:29:35.245Z,53.48
2019-04-16T01:32:35.436Z,53.08
2019-04-16T01:35:27.621Z,53.90
2019-04-16T01:38:18.661Z,53.01
2019-04-16T01:41:00.852Z,53.30
2019-04-16T01:43:41.131Z,53.07
2019-04-16T01:46:09.971Z,53.32
2019-04-16T01:48:50.514Z,53.40
2019-04-16T01:51:25.452Z,53.60
2019-04-16T01:53:57.976Z,53.20
2019-04-16T01:56:35.242Z,54.15
2019-04-16T01:59:14.073Z,53.32
2019-04-16T02:01:47.364Z,52.81
2019-04-16T02:04:22.167Z,53.62
2019-04-16T02:06:57.874Z,53.14
2019-04-16T02:09:34.539Z,54.08
2019-04-16T02:12:06.338Z,52.62
2019-04-16T02:14:41.466Z,52.89
2019-04-16T02:17:16.941Z,53.25
2019-04-16T02:19:50.402Z,53.16
2019-04-16T02:22:27.874Z,54.29
2019-04-16T02:25:02.776Z,52.27
2019-04-16T02:27:40.276Z,52.81
2019-04-16T02:30:17.583Z,53.57
2019-04-16T02:32:51.460Z,52.92
2019-04-16T02:35:32.707Z,53.28
2019-04-16T02:38:10.197Z,52.92
2019-04-16T02:40:39.173Z,53.79
2019-04-16T02:43:18.030Z,53.06
2019-04-16T02:45:47.527Z,53.62
2019-04-16T02:48:22.355Z,52.33
2019-04-16T02:51:07.411Z,52.56
2019-04-16T02:54:02.057Z,52.88
2019-04-16T02:57:01.582Z,52.60
2019-04-16T02:59:45.700Z,52.97
2019-04-16T03:02:33.070Z,53.19
2019-04-16T03:05:11.937Z,52.56
2019-04-16T03:07:45.351Z,52.69
2019-04-16T03:10:18.695Z,53.59
2019-04-16T03:12:55.422Z,53.20
2019-04-16T03:15:56.814Z,53.67
2019-04-16T03:18:37.104Z,53.42
2019-04-16T03:21:11.870Z,53.69
2019-04-16T03:23:45.276Z,52.81
2019-04-16T03:26:18.613Z,53.75
2019-04-16T03:28:51.979Z,52.85
2019-04-16T03:31:26.500Z,54.01
2019-04-16T03:34:02.710Z,52.97
2019-04-16T03:36:37.760Z,52.82
2019-04-16T03:39:13.188Z,53.62
2019-04-16T03:41:46.243Z,53.25
2019-04-16T03:44:21.267Z,53.75
2019-04-16T03:46:54.599Z,52.84
2019-04-16T03:49:28.504Z,53.42
2019-04-16T03:52:04.785Z,53.22
2019-04-16T03:54:36.941Z,52.99
2019-04-16T03:57:10.313Z,53.60
2019-04-16T03:59:49.463Z,52.89
2019-04-16T04:02:23.116Z,53.42
2019-04-16T04:04:57.607Z,52.79
2019-04-16T04:07:33.383Z,53.06
2019-04-16T04:10:11.569Z,53.63
2019-04-16T04:12:50.194Z,52.72
2019-04-16T04:15:26.368Z,54.24
2019-04-16T04:18:03.201Z,53.00
2019-04-16T04:20:37.630Z,53.19
2019-04-16T04:23:11.072Z,53.92
2019-04-16T04:25:45.053Z,53.15
2019-04-16T04:28:29.199Z,54.34
2019-04-16T04:31:05.588Z,53.40
2019-04-16T04:33:42.690Z,53.53
2019-04-16T04:36:14.824Z,54.36
2019-04-16T04:38:53.548Z,54.10
2019-04-16T04:41:29.124Z,54.98
2019-04-16T04:44:14.048Z,53.58
2019-04-16T04:46:47.331Z,53.66
2019-04-16T04:49:29.931Z,54.02
2019-04-16T04:51:57.170Z,53.70
2019-04-16T04:54:30.775Z,54.74
2019-04-16T04:57:04.499Z,53.82
2019-04-16T04:59:37.791Z,54.09
2019-04-16T05:02:14.536Z,54.57
2019-04-16T05:05:10.992Z,54.44
2019-04-16T05:07:44.282Z,54.70
2019-04-16T05:10:19.569Z,54.51
2019-04-16T05:12:53.569Z,54.98
2019-04-16T05:15:29.441Z,54.42
2019-04-16T05:18:06.239Z,54.61
2019-04-16T05:20:41.290Z,54.74
2019-04-16T05:23:17.853Z,54.65
2019-04-16T05:25:55.970Z,54.81
2019-04-16T05:28:29.193Z,54.81
2019-04-16T05:31:03.886Z,55.22
2019-04-16T05:33:39.651Z,55.46
2019-04-16T05:36:14.179Z,55.46
2019-04-16T05:38:49.160Z,55.51
2019-04-16T05:41:24.308Z,55.54
2019-04-16T05:43:58.474Z,55.42
2019-04-16T05:46:34.708Z,55.70
2019-04-16T05:49:09.172Z,55.27
2019-04-16T05:51:42.272Z,55.20
2019-04-16T05:54:44.324Z,55.25
2019-04-16T05:57:25.644Z,55.36
2019-04-16T06:00:02.794Z,55.41
2019-04-16T06:02:41.956Z,55.30
2019-04-16T06:05:21.119Z,55.09
2019-04-16T06:07:51.823Z,54.51
2019-04-16T06:10:25.096Z,54.70
2019-04-16T06:13:14.872Z,54.33
2019-04-16T06:16:26.179Z,53.82
2019-04-16T06:19:11.536Z,54.04
2019-04-16T06:22:21.841Z,53.73
2019-04-16T06:25:16.572Z,53.19
2019-04-16T06:28:00.869Z,52.44
2019-04-16T06:30:53.798Z,52.23
2019-04-16T06:33:54.496Z,52.15
2019-04-16T06:36:45.103Z,51.29
2019-04-16T06:39:33.003Z,50.97
2019-04-16T06:42:13.288Z,51.08
2019-04-16T06:45:08.305Z,50.59
2019-04-16T06:48:00.151Z,50.32
2019-04-16T06:50:59.621Z,50.61
2019-04-16T06:53:56.712Z,50.27
2019-04-16T06:56:41.940Z,50.04
2019-04-16T06:59:45.982Z,49.88
2019-04-16T07:02:43.199Z,49.96
2019-04-16T07:05:31.934Z,49.81
2019-04-16T07:08:37.462Z,48.79
2019-04-16T07:11:05.343Z,49.48
2019-04-16T07:13:41.925Z,49.62
2019-04-16T07:16:19.777Z,50.71
2019-04-16T07:19:16.803Z,48.43
2019-04-16T07:21:49.944Z,48.69
2019-04-16T07:24:30.088Z,48.87
2019-04-16T07:27:01.943Z,48.47
2019-04-16T07:29:57.937Z,46.81
2019-04-16T07:33:06.537Z,46.60
2019-04-16T07:36:15.964Z,46.12
2019-04-16T07:39:13.332Z,45.73
2019-04-16T07:42:09.370Z,45.67
2019-04-16T07:44:55.518Z,45.07
2019-04-16T07:47:43.686Z,45.60
2019-04-16T07:50:35.656Z,44.70
2019-04-16T07:53:38.386Z,44.81
2019-04-16T07:56:20.564Z,43.70
2019-04-16T07:59:12.936Z,43.09
2019-04-16T08:01:47.722Z,42.87
2019-04-16T08:04:36.477Z,42.81
2019-04-16T08:07:20.198Z,41.72
2019-04-16T08:09:53.861Z,41.56
2019-04-16T08:12:36.980Z,41.27
2019-04-16T08:15:14.195Z,40.43
2019-04-16T08:17:54.610Z,40.56
2019-04-16T08:20:27.989Z,40.66
2019-04-16T08:23:03.209Z,39.07
2019-04-16T08:25:39.124Z,38.53
2019-04-16T08:28:24.355Z,38.20
2019-04-16T08:31:00.764Z,37.99
2019-04-16T08:33:34.166Z,36.93
2019-04-16T08:36:24.825Z,36.32
2019-04-16T08:39:16.209Z,37.56
2019-04-16T08:41:52.089Z,36.61
2019-04-16T08:44:42.005Z,36.10
2019-04-16T08:47:17.551Z,33.92
2019-04-16T08:50:11.549Z,34.61
2019-04-16T08:52:58.697Z,34.96
2019-04-16T08:55:31.788Z,35.02
2019-04-16T08:58:22.759Z,33.70
2019-04-16T09:01:18.768Z,32.64
2019-04-16T09:03:50.687Z,33.32
2019-04-16T09:06:26.500Z,33.22
2019-04-16T09:09:14.230Z,32.26
2019-04-16T09:12:14.102Z,32.16
2019-04-16T09:14:56.061Z,31.51
2019-04-16T09:17:34.873Z,32.10
2019-04-16T09:20:13.519Z,32.11
2019-04-16T09:22:49.466Z,29.87
2019-04-16T09:25:33.070Z,31.01
2019-04-16T09:28:25.839Z,29.23
2019-04-16T09:31:30.677Z,30.10
2019-04-16T09:34:22.512Z,31.83
2019-04-16T09:37:25.398Z,31.07
2019-04-16T09:40:18.075Z,30.60
2019-04-16T09:43:16.172Z,29.77
2019-04-16T09:45:41.808Z,31.72
2019-04-16T09:48:27.134Z,30.75
2019-04-16T09:51:02.882Z,30.29
2019-04-16T09:53:40.379Z,29.02
2019-04-16T09:56:32.245Z,29.02
2019-04-16T09:59:15.851Z,29.18
2019-04-16T10:02:10.934Z,28.37
2019-04-16T10:05:01.491Z,27.66
2019-04-16T10:07:41.098Z,26.99
2019-04-16T10:10:32.168Z,28.34
2019-04-16T10:13:14.346Z,28.60
2019-04-16T10:15:47.538Z,28.15
2019-04-16T10:18:37.902Z,27.85
2019-04-16T10:21:18.776Z,28.37
2019-04-16T10:24:35.825Z,28.09
2019-04-16T10:27:34.025Z,27.25
2019-04-16T10:30:35.937Z,27.35
2019-04-16T10:33:15.066Z,26.69
2019-04-16T10:35:48.214Z,26.78
2019-04-16T10:38:55.072Z,26.86
2019-04-16T10:41:58.438Z,27.43
2019-04-16T10:44:49.925Z,26.64
2019-04-16T10:48:03.711Z,27.65
2019-04-16T10:51:04.943Z,27.78
2019-04-16T10:53:53.841Z,26.72
2019-04-16T10:56:46.487Z,26.75
2019-04-16T10:59:49.590Z,25.50
2019-04-16T11:02:44.062Z,25.99
2019-04-16T11:05:41.752Z,25.60
2019-04-16T11:08:15.323Z,25.19
2019-04-16T11:10:48.337Z,25.96
2019-04-16T11:13:58.350Z,26.24
2019-04-16T11:16:37.210Z,26.36
2019-04-16T11:19:27.663Z,25.93
2019-04-16T11:22:16.062Z,25.70
2019-04-16T11:24:52.398Z,25.94
2019-04-16T11:27:25.550Z,26.42
2019-04-16T11:30:31.285Z,25.48
2019-04-16T11:33:07.682Z,25.69
2019-04-16T11:35:40.854Z,26.13
2019-04-16T11:38:31.413Z,25.71
2019-04-16T11:41:07.323Z,25.54
2019-04-16T11:43:57.733Z,25.16
2019-04-16T11:46:46.662Z,25.35
2019-04-16T11:49:34.924Z,29.54
2019-04-16T11:52:25.881Z,25.33
2019-04-16T11:55:01.503Z,25.41
2019-04-16T11:57:40.529Z,24.92
2019-04-16T12:00:50.929Z,24.55
2019-04-16T12:03:37.033Z,25.04
2019-04-16T12:06:53.301Z,25.17
2019-04-16T12:09:54.274Z,24.32
2019-04-16T12:13:04.405Z,24.78
2019-04-16T12:15:57.367Z,24.88
2019-04-16T12:18:35.741Z,24.19
2019-04-16T12:21:45.265Z,24.23
2019-04-16T12:24:54.901Z,23.77
2019-04-16T12:27:45.795Z,23.57
2019-04-16T12:31:10.471Z,24.75
2019-04-16T12:34:05.318Z,24.62
2019-04-16T12:36:59.746Z,24.36
2019-04-16T12:39:50.024Z,24.01
2019-04-16T12:42:57.309Z,23.03
2019-04-16T12:45:49.187Z,23.37
2019-04-16T12:48:59.448Z,23.52
2019-04-16T12:51:57.318Z,24.28
2019-04-16T12:55:04.512Z,24.25
2019-04-16T12:57:49.341Z,24.52
2019-04-16T13:00:37.151Z,24.18
2019-04-16T13:03:52.374Z,23.68
2019-04-16T13:06:55.234Z,24.25
2019-04-16T13:09:45.983Z,24.58
2019-04-16T13:12:40.961Z,23.74
2019-04-16T13:15:31.635Z,23.02
2019-04-16T13:18:08.199Z,23.99
2019-04-16T13:21:18.096Z,23.71
2019-04-16T13:24:19.342Z,23.85
2019-04-16T13:27:08.897Z,23.06
2019-04-16T13:29:41.972Z,23.09
2019-04-16T13:32:27.926Z,24.19
2019-04-16T13:35:01.191Z,24.19
2019-04-16T13:37:41.385Z,23.94
2019-04-16T13:40:16.208Z,23.60
2019-04-16T13:42:51.977Z,22.42
2019-04-16T13:45:40.572Z,23.78
2019-04-16T13:48:35.151Z,24.16
2019-04-16T13:51:15.122Z,24.17
2019-04-16T13:54:00.361Z,23.78
2019-04-16T13:57:00.007Z,24.13
2019-04-16T14:00:04.364Z,23.76
2019-04-16T14:03:13.887Z,24.02
2019-04-16T14:05:47.239Z,23.85
2019-04-16T14:08:20.264Z,23.29
2019-04-16T14:10:53.338Z,23.11
2019-04-16T14:13:26.462Z,23.39
2019-04-16T14:15:59.515Z,23.14
2019-04-16T14:18:35.615Z,23.55
2019-04-16T14:21:08.568Z,23.38
2019-04-16T14:23:41.706Z,23.50
2019-04-16T14:26:16.385Z,23.09
2019-04-16T14:28:52.437Z,23.64
2019-04-16T14:31:25.868Z,23.28
2019-04-16T14:34:16.647Z,23.38
2019-04-16T14:36:53.119Z,23.92
2019-04-16T14:39:35.142Z,24.26
2019-04-16T14:42:08.442Z,24.03
2019-04-16T14:44:45.541Z,24.17
2019-04-16T14:47:18.583Z,24.17
2019-04-16T14:49:51.796Z,24.08
2019-04-16T14:52:25.898Z,24.45
2019-04-16T14:55:10.486Z,24.43
2019-04-16T14:58:00.853Z,25.14
2019-04-16T15:00:49.123Z,24.50
2019-04-16T15:03:43.098Z,24.85
2019-04-16T15:06:39.687Z,24.59
2019-04-16T15:09:30.208Z,24.56
2019-04-16T15:12:21.067Z,24.70
2019-04-16T15:14:58.610Z,25.01
2019-04-16T15:17:44.485Z,25.09
2019-04-16T15:20:39.537Z,25.27
2019-04-16T15:23:30.710Z,25.22
2019-04-16T15:26:37.661Z,25.27
2019-04-16T15:29:41.905Z,25.26
2019-04-16T15:32:34.096Z,25.20
2019-04-16T15:35:13.867Z,24.61
2019-04-16T15:38:02.719Z,24.72
2019-04-16T15:40:40.299Z,25.30
2019-04-16T15:43:30.255Z,24.53
2019-04-16T15:46:26.153Z,24.46
2019-04-16T15:49:19.422Z,24.78
2019-04-16T15:52:02.710Z,25.20
2019-04-16T15:54:43.903Z,25.15
2019-04-16T15:57:50.858Z,24.88
2019-04-16T16:00:48.905Z,25.14
2019-04-16T16:03:49.969Z,24.08
2019-04-16T16:06:24.798Z,24.72
2019-04-16T16:09:22.808Z,25.25
2019-04-16T16:12:00.975Z,25.10
2019-04-16T16:14:38.545Z,25.34
2019-04-16T16:17:09.474Z,24.93
2019-04-16T16:19:42.550Z,25.15
2019-04-16T16:22:16.854Z,25.15
2019-04-16T16:24:49.883Z,25.15
2019-04-16T16:27:22.972Z,25.07
2019-04-16T16:29:56.189Z,25.10
2019-04-16T16:32:29.222Z,24.97
2019-04-16T16:35:02.357Z,25.00
2019-04-16T16:37:36.894Z,24.77
2019-04-16T16:40:14.628Z,24.99
2019-04-16T16:42:46.705Z,25.62
2019-04-16T16:45:22.063Z,24.99
2019-04-16T16:47:56.521Z,25.07
2019-04-16T16:50:29.734Z,24.49
2019-04-16T16:53:25.251Z,24.99
2019-04-16T16:56:02.296Z,24.84
2019-04-16T16:58:54.518Z,25.32
2019-04-16T17:01:35.994Z,25.17
2019-04-16T17:04:12.976Z,25.25
2019-04-16T17:06:46.258Z,25.11
2019-04-16T17:09:27.140Z,25.62
2019-04-16T17:11:59.469Z,25.49
2019-04-16T17:14:36.270Z,25.22
2019-04-16T17:17:14.177Z,25.57
2019-04-16T17:19:42.329Z,25.42
2019-04-16T17:22:17.400Z,25.99
2019-04-16T17:24:50.462Z,25.98
2019-04-16T17:27:25.936Z,25.87
2019-04-16T17:29:59.017Z,26.18
2019-04-16T17:32:32.289Z,26.20
2019-04-16T17:35:07.580Z,26.42
2019-04-16T17:37:48.372Z,26.29
2019-04-16T17:40:33.643Z,26.39
2019-04-16T17:43:15.669Z,26.45
2019-04-16T17:46:14.508Z,26.66
2019-04-16T17:49:09.657Z,26.58
2019-04-16T17:51:54.731Z,26.72
2019-04-16T17:54:34.504Z,26.20
2019-04-16T17:57:16.994Z,26.95
2019-04-16T18:00:00.461Z,26.96
2019-04-16T18:03:04.561Z,27.07
2019-04-16T18:05:42.788Z,27.12
2019-04-16T18:08:40.817Z,27.25
2019-04-16T18:11:17.729Z,27.75
2019-04-16T18:13:58.047Z,27.70
2019-04-16T18:16:46.122Z,27.88
2019-04-16T18:19:37.069Z,28.23
2019-04-16T18:22:19.558Z,29.14
2019-04-16T18:25:21.353Z,29.29
2019-04-16T18:28:06.217Z,29.02
2019-04-16T18:30:57.309Z,29.34
2019-04-16T18:33:48.524Z,29.84
2019-04-16T18:36:34.596Z,29.62
2019-04-16T18:39:27.235Z,29.33
2019-04-16T18:42:19.178Z,29.29
2019-04-16T18:45:11.404Z,29.47
2019-04-16T18:48:13.862Z,29.62
2019-04-16T18:50:45.287Z,30.26
2019-04-16T18:53:18.892Z,30.87
2019-04-16T18:55:52.394Z,31.51
2019-04-16T18:58:26.681Z,31.47
2019-04-16T19:01:03.020Z,32.19
2019-04-16T19:03:37.386Z,32.06
2019-04-16T19:06:13.941Z,32.24
2019-04-16T19:08:50.671Z,31.80
2019-04-16T19:11:24.369Z,32.32
2019-04-16T19:14:03.728Z,32.49
2019-04-16T19:16:38.065Z,32.43
2019-04-16T19:19:12.288Z,31.65
2019-04-16T19:21:51.343Z,31.90
2019-04-16T19:24:24.263Z,32.86
2019-04-16T19:26:57.731Z,33.02
2019-04-16T19:29:35.854Z,33.35
2019-04-16T19:32:10.458Z,32.69
2019-04-16T19:34:46.986Z,33.05
2019-04-16T19:37:20.504Z,33.53
2019-04-16T19:39:56.260Z,33.56
2019-04-16T19:42:33.368Z,34.31
2019-04-16T19:45:08.654Z,34.60
2019-04-16T19:47:43.091Z,34.76
2019-04-16T19:50:17.757Z,34.89
2019-04-16T19:52:54.997Z,34.94
2019-04-16T19:55:29.436Z,35.54
2019-04-16T19:58:02.620Z,35.63
2019-04-16T20:00:36.446Z,35.50
2019-04-16T20:03:13.188Z,35.44
2019-04-16T20:05:50.996Z,35.21
2019-04-16T20:08:24.228Z,35.08
2019-04-16T20:11:04.009Z,35.15
2019-04-16T20:13:37.511Z,34.72
2019-04-16T20:16:12.176Z,34.49
2019-04-16T20:18:51.080Z,34.92
2019-04-16T20:21:28.601Z,34.97
2019-04-16T20:24:02.062Z,35.37
2019-04-16T20:26:56.404Z,35.21
2019-04-16T20:29:47.555Z,34.80
2019-04-16T20:32:24.523Z,35.21
2019-04-16T20:35:00.511Z,35.17
2019-04-16T20:37:35.310Z,35.26
2019-04-16T20:40:14.687Z,35.52
2019-04-16T20:42:53.606Z,35.67
2019-04-16T20:45:27.526Z,35.59
2019-04-16T20:48:01.124Z,35.74
2019-04-16T20:50:37.181Z,35.94
2019-04-16T20:53:21.703Z,36.15
2019-04-16T20:55:57.783Z,35.97
2019-04-16T20:58:34.896Z,36.21
2019-04-16T21:01:32.803Z,36.44
2019-04-16T21:04:05.037Z,36.27
2019-04-16T21:06:32.958Z,36.42
2019-04-16T21:09:10.242Z,36.92
2019-04-16T21:11:52.946Z,37.00
2019-04-16T21:14:31.996Z,37.15
2019-04-16T21:17:22.199Z,37.04
2019-04-16T21:19:55.365Z,37.16
2019-04-16T21:22:28.963Z,37.47
2019-04-16T21:25:13.797Z,37.77
2019-04-16T21:27:58.503Z,37.95
2019-04-16T21:30:47.058Z,38.33
2019-04-16T21:33:41.278Z,38.35
2019-04-16T21:36:33.875Z,38.49
2019-04-16T21:39:23.117Z,38.42
2019-04-16T21:42:02.372Z,38.72
2019-04-16T21:44:44.564Z,39.13
2019-04-16T21:47:23.599Z,39.45
2019-04-16T21:49:59.734Z,39.61
2019-04-16T21:52:36.885Z,40.25
2019-04-16T21:55:13.910Z,40.55
2019-04-16T21:57:48.873Z,40.77
2019-04-16T22:00:48.353Z,40.79
2019-04-16T22:03:27.328Z,40.97
2019-04-16T22:06:01.049Z,41.14
2019-04-16T22:08:34.412Z,41.54
2019-04-16T22:11:11.780Z,41.73
2019-04-16T22:13:44.113Z,42.04
2019-04-16T22:16:18.938Z,42.31
2019-04-16T22:18:55.092Z,42.39
2019-04-16T22:21:30.630Z,42.32
2019-04-16T22:24:05.244Z,42.70
2019-04-16T22:26:40.135Z,43.08
2019-04-16T22:29:15.798Z,43.37
2019-04-16T22:31:52.676Z,43.18
2019-04-16T22:34:23.215Z,43.72
2019-04-16T22:36:58.070Z,43.81
2019-04-16T22:39:35.818Z,43.87
2019-04-16T22:42:35.150Z,44.05
2019-04-16T22:45:32.022Z,44.39
2019-04-16T22:48:09.105Z,44.52
2019-04-16T22:50:44.696Z,44.74
2019-04-16T22:53:18.063Z,44.83
2019-04-16T22:55:56.322Z,44.89
2019-04-16T22:58:46.525Z,45.29
2019-04-16T23:01:23.520Z,44.97
2019-04-16T23:03:58.856Z,45.78
2019-04-16T23:06:38.680Z,46.57
2019-04-16T23:09:17.904Z,46.65
2019-04-16T23:11:52.688Z,47.25
2019-04-16T23:14:26.193Z,47.18
2019-04-16T23:17:01.266Z,47.86
2019-04-16T23:19:40.649Z,48.43
2019-04-16T23:22:16.401Z,48.81
2019-04-16T23:24:51.737Z,49.05
2019-04-16T23:27:26.534Z,49.47
2019-04-16T23:30:00.422Z,49.82
2019-04-16T23:32:36.023Z,49.85
2019-04-16T23:35:13.477Z,50.03
2019-04-16T23:37:47.879Z,50.29
2019-04-16T23:40:21.225Z,49.95
2019-04-16T23:43:23.153Z,50.54
2019-04-16T23:46:31.092Z,51.21
2019-04-16T23:49:29.090Z,51.17
2019-04-16T23:52:12.827Z,51.76
2019-04-16T23:54:57.743Z,51.72
2019-04-16T23:57:56.801Z,51.73
